To NAV CANADA Home Page Login to a new session Search on AWWS site Feedback and Comments Disclaimer Vers la page française équivalente Tips FAQ What's new on the site To the Forecasts and Observations / NOTAM section To "File a Flight Plan" website Publications and other links Update of the User's profile FIC Telephone Numbers My Weather Data Folder Route Weather Data Regional Weather Data Local Weather Data To the Forecasts and Observations / NOTAM section
Request Generated 05/30/2016 at 18:12:23 UTC . Weather information available at that time is displayed.

METAR/TAF

QUAQTAQ/QC    

METAR CYHA 301800Z 02010KT 15SM SCT018 M00/M06 A3012 RMK SC3 SLP204=
METAR CYHA 301700Z 35011KT 15SM FEW022 M01/M07 A3012 RMK SC1 SLP205=
METAR CYHA 301600Z 35010KT 15SM FEW016 M01/M06 A3012 RMK SC1 SC TR
SLP205=

TAF CYHA 301338Z 3014/3021 34006KT P6SM FEW006 SCT025
BECMG 3014/3016 35012KT
RMK NXT FCST WILL BE ISSUED AT 311345Z=
Your time UTC time
Weather data provided by Environment Canada and NAV CANADA